Weather History for Shawnee, OK

Change the Weather History Date:

Thursday, November 8, 2012

  Actual Average (KTIK) Record (KTIK)
Temperature  
Mean Temperature 66 °F -  
Max Temperature 80 °F 58 °F 82 °F (2005)
Min Temperature 53 °F 41 °F 30 °F (2000)
Cooling Degree Days 2    
Growing Degree Days 16 (Base 50)    
Moisture  
Dew Point 48 °F    
Average Humidity 52    
Maximum Humidity 73    
Minimum Humidity 41    
Precipitation  
Precipitation 0.00 in - - ()
Sea Level Pressure  
Sea Level Pressure 29.98 in    
Wind  
Wind Speed 14 mph (SSE)    
Max Wind Speed 26 mph    
Max Gust Speed 32 mph    
Visibility 10 miles    
Events      
Averages and records for this station are not official NWS values.
T = Trace of Precipitation, MM = Missing Value Source: NWS Daily Summary

Daily Weather History Graph

Daily Weather History Graph

Search for Another Location

Airport:

Trip Planner

Search our weather history database for the weather conditions in past years. The results will help you decide how hot, cold, wet, or windy it might be!

Date:

Astronomy

Nov. 08, 2012 Rise Set
Actual Time 6:56 AM CST 5:26 PM CST
Civil Twilight 6:29 AM CST 5:52 PM CST
Nautical Twilight 5:59 AM CST 6:23 PM CST
Astronomical Twilight 5:29 AM CST 6:53 PM CST
Moon 1:05 AM CST (11/8) 1:56 PM CST (11/8)
Length of Visible Light 11h 22m
Length of Day
10h 29m
Waning Crescent, 32% of the Moon is Illuminated
Nov 8
Waning Crescent
Nov 13
New
Nov 20
First Quarter
Nov 28
Full
Dec 6
Last Quarter

Hourly Weather History & Observations

Time (CST) Temp. Heat Index Dew Point Humidity Pressure Visibility Wind Dir Wind Speed Gust Speed Precip Events Conditions
12:15 AM 55.4 °F - 35.6 °F 47% 30.08 in 10.0 mi SSE 9.2 mph - N/A   Clear
12:35 AM 55.4 °F - 35.6 °F 47% 30.08 in 10.0 mi SSE 10.4 mph - N/A   Clear
12:55 AM 55.4 °F - 35.6 °F 47% 30.08 in 10.0 mi SSE 8.1 mph - N/A   Clear
1:15 AM 55.4 °F - 35.6 °F 47% 30.07 in 10.0 mi SSE 9.2 mph - N/A   Clear
1:35 AM 55.4 °F - 35.6 °F 47% 30.07 in 10.0 mi SSE 10.4 mph - N/A   Clear
1:55 AM 55.4 °F - 35.6 °F 47% 30.07 in 10.0 mi SSE 10.4 mph - N/A   Clear
2:15 AM 55.4 °F - 35.6 °F 47% 30.07 in 10.0 mi SSE 11.5 mph - N/A   Clear
2:35 AM 55.4 °F - 35.6 °F 47% 30.06 in 10.0 mi SSE 10.4 mph - N/A   Clear
2:55 AM 55.4 °F - 35.6 °F 47% 30.06 in 10.0 mi SSE 10.4 mph 17.3 mph N/A   Clear
3:15 AM 55.4 °F - 35.6 °F 47% 30.06 in 10.0 mi SSE 11.5 mph - N/A   Clear
3:35 AM 55.4 °F - 35.6 °F 47% 30.05 in 10.0 mi SSE 11.5 mph - N/A   Clear
3:55 AM 55.4 °F - 37.4 °F 51% 30.05 in 10.0 mi SSE 11.5 mph - N/A   Clear
4:15 AM 53.6 °F - 35.6 °F 51% 30.05 in 10.0 mi SSE 12.7 mph 17.3 mph N/A   Clear
4:35 AM 53.6 °F - 35.6 °F 51% 30.05 in 10.0 mi SSE 11.5 mph - N/A   Clear
4:55 AM 53.6 °F - 37.4 °F 54% 30.05 in 10.0 mi SSE 13.8 mph 18.4 mph N/A   Clear
5:15 AM 53.6 °F - 37.4 °F 54% 30.05 in 10.0 mi SSE 12.7 mph 17.3 mph N/A   Clear
5:35 AM 53.6 °F - 35.6 °F 51% 30.05 in 10.0 mi SSE 12.7 mph - N/A   Clear
5:55 AM 53.6 °F - 35.6 °F 51% 30.05 in 10.0 mi SSE 12.7 mph - N/A   Clear
6:15 AM 53.6 °F - 35.6 °F 51% 30.05 in 10.0 mi SSE 13.8 mph - N/A   Clear
6:35 AM 53.6 °F - 35.6 °F 51% 30.05 in 10.0 mi South 16.1 mph 20.7 mph N/A   Clear
6:55 AM 53.6 °F - 35.6 °F 51% 30.05 in 10.0 mi SSE 17.3 mph 21.9 mph N/A   Clear
7:15 AM 53.6 °F - 35.6 °F 51% 30.05 in 10.0 mi SSE 16.1 mph 23.0 mph N/A   Clear
7:35 AM 55.4 °F - 37.4 °F 51% 30.05 in 10.0 mi South 16.1 mph 21.9 mph N/A   Clear
7:55 AM 55.4 °F - 37.4 °F 51% 30.06 in 10.0 mi SSE 16.1 mph 23.0 mph N/A   Clear
8:15 AM 55.4 °F - 37.4 °F 51% 30.06 in 10.0 mi SSE 17.3 mph 23.0 mph N/A   Clear
8:35 AM 57.2 °F - 37.4 °F 48% 30.06 in 10.0 mi SSE 13.8 mph 23.0 mph N/A   Clear
8:55 AM 59.0 °F - 39.2 °F 48% 30.05 in 10.0 mi SSE 17.3 mph 28.8 mph N/A   Clear
9:15 AM 60.8 °F - 41.0 °F 48% 30.04 in 10.0 mi SSE 20.7 mph 25.3 mph N/A   Clear
9:35 AM 62.6 °F - 41.0 °F 45% 30.04 in 10.0 mi South 21.9 mph 26.5 mph N/A   Clear
9:55 AM 62.6 °F - 42.8 °F 48% 30.03 in 10.0 mi SSE 20.7 mph 28.8 mph N/A   Clear
10:15 AM 62.6 °F - 44.6 °F 52% 30.02 in 10.0 mi SSE 26.5 mph 31.1 mph N/A   Clear
10:35 AM 66.2 °F - 46.4 °F 49% 30.02 in 10.0 mi South 21.9 mph 32.2 mph N/A   Clear
10:55 AM 68.0 °F - 46.4 °F 46% 30.01 in 10.0 mi SSE 21.9 mph 27.6 mph N/A   Clear
11:15 AM 71.6 °F - 50.0 °F 46% 30.00 in 10.0 mi South 19.6 mph 26.5 mph N/A   Clear
11:35 AM 71.6 °F - 50.0 °F 46% 29.99 in 10.0 mi SSE 19.6 mph 25.3 mph N/A   Clear
11:55 AM 73.4 °F - 50.0 °F 44% 29.98 in 10.0 mi South 15.0 mph 28.8 mph N/A   Clear
12:15 PM 77.0 °F - 51.8 °F 41% 29.97 in 10.0 mi South 16.1 mph 28.8 mph N/A   Clear
12:35 PM 77.0 °F - 51.8 °F 41% 29.96 in 10.0 mi SSE 16.1 mph 24.2 mph N/A   Clear
12:55 PM 78.8 °F - 53.6 °F 42% 29.94 in 10.0 mi South 19.6 mph 29.9 mph N/A   Clear
1:15 PM 78.8 °F - 53.6 °F 42% 29.93 in 10.0 mi South 19.6 mph 32.2 mph N/A   Clear
1:35 PM 78.8 °F - 53.6 °F 42% 29.92 in 10.0 mi South 19.6 mph 31.1 mph N/A   Clear
1:55 PM 78.8 °F - 53.6 °F 42% 29.91 in 10.0 mi South 20.7 mph 26.5 mph N/A   Clear
2:15 PM 78.8 °F - 53.6 °F 42% 29.90 in 10.0 mi South 21.9 mph 28.8 mph N/A   Clear
2:35 PM 78.8 °F - 55.4 °F 44% 29.90 in 10.0 mi South 21.9 mph 29.9 mph N/A   Clear
2:55 PM 80.6 °F 80.5 °F 55.4 °F 42% 29.89 in 10.0 mi South 15.0 mph 24.2 mph N/A   Clear
3:15 PM 80.6 °F 80.5 °F 55.4 °F 42% 29.89 in 10.0 mi South 13.8 mph 26.5 mph N/A   Clear
3:35 PM 80.6 °F 80.8 °F 57.2 °F 45% 29.89 in 10.0 mi South 18.4 mph 29.9 mph N/A   Clear
4:15 PM 78.8 °F - 55.4 °F 44% 29.90 in 10.0 mi South 18.4 mph 26.5 mph N/A   Clear
4:35 PM 78.8 °F - 57.2 °F 47% 29.90 in 10.0 mi South 20.7 mph 27.6 mph N/A   Clear
4:55 PM 77.0 °F - 57.2 °F 50% 29.90 in 10.0 mi South 16.1 mph 24.2 mph N/A   Clear
5:15 PM 77.0 °F - 57.2 °F 50% 29.91 in 10.0 mi South 12.7 mph 21.9 mph N/A   Clear
5:35 PM 77.0 °F - 59.0 °F 54% 29.90 in 10.0 mi South 15.0 mph 21.9 mph N/A   Clear
5:55 PM 77.0 °F - 59.0 °F 54% 29.90 in 10.0 mi South 16.1 mph - N/A   Clear
6:15 PM 75.2 °F - 59.0 °F 57% 29.90 in 10.0 mi South 16.1 mph 23.0 mph N/A   Clear
6:35 PM 73.4 °F - 57.2 °F 57% 29.90 in 10.0 mi South 15.0 mph 23.0 mph N/A   Clear
6:55 PM 73.4 °F - 59.0 °F 61% 29.91 in 10.0 mi SSE 17.3 mph 23.0 mph N/A   Clear
7:15 PM 73.4 °F - 59.0 °F 61% 29.91 in 10.0 mi SSE 16.1 mph 24.2 mph N/A   Clear
7:35 PM 71.6 °F - 59.0 °F 64% 29.91 in 10.0 mi SSE 17.3 mph 20.7 mph N/A   Clear
7:55 PM 71.6 °F - 59.0 °F 64% 29.91 in 10.0 mi South 17.3 mph 21.9 mph N/A   Clear
8:35 PM 71.6 °F - 59.0 °F 64% 29.92 in 10.0 mi South 19.6 mph 23.0 mph N/A   Clear
8:55 PM 71.6 °F - 59.0 °F 64% 29.92 in 10.0 mi South 15.0 mph 24.2 mph N/A   Clear
9:15 PM 71.6 °F - 59.0 °F 64% 29.92 in 10.0 mi South 19.6 mph 23.0 mph N/A   Clear
9:35 PM 71.6 °F - 60.8 °F 69% 29.92 in 10.0 mi South 17.3 mph 24.2 mph N/A   Clear
10:15 PM 71.6 °F - 60.8 °F 69% 29.92 in 10.0 mi South 17.3 mph 25.3 mph N/A   Clear
10:35 PM 71.6 °F - 60.8 °F 69% 29.92 in 10.0 mi South 15.0 mph 24.2 mph N/A   Clear
10:55 PM 71.6 °F - 60.8 °F 69% 29.92 in 10.0 mi South 15.0 mph 24.2 mph N/A   Clear
11:15 PM 69.8 °F - 60.8 °F 73% 29.92 in 10.0 mi South 15.0 mph 21.9 mph N/A   Clear
11:35 PM 68.0 °F - 59.0 °F 73% 29.93 in 10.0 mi South 17.3 mph 26.5 mph N/A   Clear
11:55 PM 68.0 °F - 59.0 °F 73% 29.93 in 10.0 mi South 17.3 mph 24.2 mph N/A   Clear